sensor_id;sensor_type;location;lat;lon;timestamp;P1;durP1;ratioP1;P2;durP2;ratioP2
10295;SDS011;5193;51.032;6.356;2022-08-25T00:00:31;5.37;;;2.80;;
10295;SDS011;5193;51.032;6.356;2022-08-25T00:02:57;7.30;;;2.80;;
10295;SDS011;5193;51.032;6.356;2022-08-25T00:05:23;7.23;;;3.00;;
10295;SDS011;5193;51.032;6.356;2022-08-25T00:07:53;5.03;;;2.90;;
10295;SDS011;5193;51.032;6.356;2022-08-25T00:10:19;5.73;;;2.90;;
10295;SDS011;5193;51.032;6.356;2022-08-25T00:12:45;3.73;;;2.50;;
10295;SDS011;5193;51.032;6.356;2022-08-25T00:15:11;3.90;;;2.93;;
10295;SDS011;5193;51.032;6.356;2022-08-25T00:17:37;4.33;;;2.40;;
10295;SDS011;5193;51.032;6.356;2022-08-25T00:20:03;3.93;;;2.80;;
10295;SDS011;5193;51.032;6.356;2022-08-25T00:22:30;12.23;;;2.93;;
10295;SDS011;5193;51.032;6.356;2022-08-25T00:24:56;5.87;;;2.90;;
10295;SDS011;5193;51.032;6.356;2022-08-25T00:27:21;2.80;;;2.50;;
10295;SDS011;5193;51.032;6.356;2022-08-25T00:29:47;4.10;;;2.47;;
10295;SDS011;5193;51.032;6.356;2022-08-25T00:32:14;4.80;;;2.43;;
10295;SDS011;5193;51.032;6.356;2022-08-25T00:34:40;8.00;;;2.73;;
10295;SDS011;5193;51.032;6.356;2022-08-25T00:37:06;6.10;;;2.50;;
10295;SDS011;5193;51.032;6.356;2022-08-25T00:39:33;5.43;;;2.40;;
10295;SDS011;5193;51.032;6.356;2022-08-25T00:41:59;3.57;;;2.50;;
10295;SDS011;5193;51.032;6.356;2022-08-25T00:44:30;6.10;;;2.80;;
10295;SDS011;5193;51.032;6.356;2022-08-25T00:46:58;10.10;;;3.10;;
10295;SDS011;5193;51.032;6.356;2022-08-25T00:49:35;9.13;;;2.50;;
10295;SDS011;5193;51.032;6.356;2022-08-25T00:52:27;7.60;;;2.70;;
10295;SDS011;5193;51.032;6.356;2022-08-25T00:57:33;5.87;;;2.77;;
10295;SDS011;5193;51.032;6.356;2022-08-25T01:00:09;3.83;;;2.70;;
10295;SDS011;5193;51.032;6.356;2022-08-25T01:02:43;7.60;;;2.90;;
10295;SDS011;5193;51.032;6.356;2022-08-25T01:05:08;6.63;;;3.30;;
10295;SDS011;5193;51.032;6.356;2022-08-25T01:07:35;2.80;;;2.40;;
10295;SDS011;5193;51.032;6.356;2022-08-25T01:10:01;6.00;;;2.47;;
10295;SDS011;5193;51.032;6.356;2022-08-25T01:12:31;10.40;;;2.87;;
10295;SDS011;5193;51.032;6.356;2022-08-25T01:14:57;8.27;;;2.50;;
10295;SDS011;5193;51.032;6.356;2022-08-25T01:17:31;3.97;;;2.50;;
10295;SDS011;5193;51.032;6.356;2022-08-25T01:20:09;3.40;;;2.40;;
10295;SDS011;5193;51.032;6.356;2022-08-25T01:22:35;4.83;;;2.30;;
10295;SDS011;5193;51.032;6.356;2022-08-25T01:25:04;5.00;;;2.60;;
10295;SDS011;5193;51.032;6.356;2022-08-25T01:27:44;5.07;;;2.40;;
10295;SDS011;5193;51.032;6.356;2022-08-25T01:30:10;8.57;;;2.67;;
10295;SDS011;5193;51.032;6.356;2022-08-25T01:32:36;2.83;;;2.00;;
10295;SDS011;5193;51.032;6.356;2022-08-25T01:35:02;4.50;;;2.40;;
10295;SDS011;5193;51.032;6.356;2022-08-25T01:37:27;3.97;;;2.40;;
10295;SDS011;5193;51.032;6.356;2022-08-25T01:39:53;5.23;;;2.17;;
10295;SDS011;5193;51.032;6.356;2022-08-25T01:44:47;3.57;;;2.40;;
10295;SDS011;5193;51.032;6.356;2022-08-25T01:47:13;7.20;;;2.57;;
10295;SDS011;5193;51.032;6.356;2022-08-25T01:49:40;12.07;;;2.57;;
10295;SDS011;5193;51.032;6.356;2022-08-25T01:52:09;4.67;;;2.10;;
10295;SDS011;5193;51.032;6.356;2022-08-25T01:54:41;4.20;;;2.53;;
10295;SDS011;5193;51.032;6.356;2022-08-25T01:57:06;4.57;;;2.33;;
10295;SDS011;5193;51.032;6.356;2022-08-25T01:59:33;2.87;;;1.67;;
10295;SDS011;5193;51.032;6.356;2022-08-25T02:01:58;8.07;;;2.30;;
10295;SDS011;5193;51.032;6.356;2022-08-25T02:04:24;2.60;;;2.17;;
10295;SDS011;5193;51.032;6.356;2022-08-25T02:06:50;4.63;;;2.43;;
10295;SDS011;5193;51.032;6.356;2022-08-25T02:09:16;2.63;;;2.40;;
10295;SDS011;5193;51.032;6.356;2022-08-25T02:11:43;2.70;;;2.10;;
10295;SDS011;5193;51.032;6.356;2022-08-25T02:14:11;4.27;;;2.03;;
10295;SDS011;5193;51.032;6.356;2022-08-25T02:16:39;3.50;;;2.17;;
10295;SDS011;5193;51.032;6.356;2022-08-25T02:19:07;2.47;;;2.27;;
10295;SDS011;5193;51.032;6.356;2022-08-25T02:21:35;3.37;;;2.03;;
10295;SDS011;5193;51.032;6.356;2022-08-25T02:24:01;7.93;;;2.23;;
10295;SDS011;5193;51.032;6.356;2022-08-25T02:26:28;3.43;;;2.40;;
10295;SDS011;5193;51.032;6.356;2022-08-25T02:28:54;2.33;;;1.97;;
10295;SDS011;5193;51.032;6.356;2022-08-25T02:31:22;3.60;;;2.30;;
10295;SDS011;5193;51.032;6.356;2022-08-25T02:33:50;4.53;;;2.30;;
10295;SDS011;5193;51.032;6.356;2022-08-25T02:36:16;4.53;;;2.30;;
10295;SDS011;5193;51.032;6.356;2022-08-25T02:38:42;3.43;;;2.80;;
10295;SDS011;5193;51.032;6.356;2022-08-25T02:41:09;5.43;;;2.57;;
10295;SDS011;5193;51.032;6.356;2022-08-25T02:43:36;5.60;;;2.30;;
10295;SDS011;5193;51.032;6.356;2022-08-25T02:46:03;4.70;;;2.37;;
10295;SDS011;5193;51.032;6.356;2022-08-25T02:48:29;2.90;;;2.40;;
10295;SDS011;5193;51.032;6.356;2022-08-25T02:50:57;5.77;;;2.53;;
10295;SDS011;5193;51.032;6.356;2022-08-25T02:53:24;3.97;;;2.60;;
10295;SDS011;5193;51.032;6.356;2022-08-25T02:55:51;6.13;;;2.47;;
10295;SDS011;5193;51.032;6.356;2022-08-25T02:58:16;3.60;;;2.27;;
10295;SDS011;5193;51.032;6.356;2022-08-25T03:00:43;2.30;;;2.13;;
10295;SDS011;5193;51.032;6.356;2022-08-25T03:03:09;5.33;;;2.70;;
10295;SDS011;5193;51.032;6.356;2022-08-25T03:05:35;2.50;;;2.30;;
10295;SDS011;5193;51.032;6.356;2022-08-25T03:08:01;3.17;;;2.27;;
10295;SDS011;5193;51.032;6.356;2022-08-25T03:10:27;3.00;;;2.43;;
10295;SDS011;5193;51.032;6.356;2022-08-25T03:12:53;4.87;;;2.57;;
10295;SDS011;5193;51.032;6.356;2022-08-25T03:15:18;4.97;;;2.30;;
10295;SDS011;5193;51.032;6.356;2022-08-25T03:17:44;4.63;;;2.60;;
10295;SDS011;5193;51.032;6.356;2022-08-25T03:20:13;6.30;;;3.00;;
10295;SDS011;5193;51.032;6.356;2022-08-25T03:22:40;8.00;;;2.83;;
10295;SDS011;5193;51.032;6.356;2022-08-25T03:25:07;3.40;;;2.70;;
10295;SDS011;5193;51.032;6.356;2022-08-25T03:27:51;3.87;;;2.60;;
10295;SDS011;5193;51.032;6.356;2022-08-25T03:30:17;7.27;;;2.90;;
10295;SDS011;5193;51.032;6.356;2022-08-25T03:32:43;3.70;;;2.17;;
10295;SDS011;5193;51.032;6.356;2022-08-25T03:35:09;3.47;;;2.47;;
10295;SDS011;5193;51.032;6.356;2022-08-25T03:37:36;5.63;;;3.30;;
10295;SDS011;5193;51.032;6.356;2022-08-25T03:40:03;4.87;;;2.70;;
10295;SDS011;5193;51.032;6.356;2022-08-25T03:42:30;3.93;;;2.87;;
10295;SDS011;5193;51.032;6.356;2022-08-25T03:44:56;5.60;;;2.83;;
10295;SDS011;5193;51.032;6.356;2022-08-25T03:47:21;3.33;;;2.97;;
10295;SDS011;5193;51.032;6.356;2022-08-25T03:49:49;7.83;;;3.27;;
10295;SDS011;5193;51.032;6.356;2022-08-25T03:52:15;5.93;;;3.33;;
10295;SDS011;5193;51.032;6.356;2022-08-25T03:54:42;8.03;;;3.93;;
10295;SDS011;5193;51.032;6.356;2022-08-25T03:57:09;6.43;;;3.33;;
10295;SDS011;5193;51.032;6.356;2022-08-25T03:59:34;5.70;;;3.60;;
10295;SDS011;5193;51.032;6.356;2022-08-25T04:02:03;5.00;;;3.40;;
10295;SDS011;5193;51.032;6.356;2022-08-25T04:04:29;5.90;;;3.60;;
10295;SDS011;5193;51.032;6.356;2022-08-25T04:06:55;8.70;;;3.60;;
10295;SDS011;5193;51.032;6.356;2022-08-25T04:09:21;6.20;;;3.87;;
10295;SDS011;5193;51.032;6.356;2022-08-25T04:11:46;5.77;;;3.27;;
10295;SDS011;5193;51.032;6.356;2022-08-25T04:14:12;5.87;;;3.27;;
10295;SDS011;5193;51.032;6.356;2022-08-25T04:16:38;4.77;;;3.27;;
10295;SDS011;5193;51.032;6.356;2022-08-25T04:19:05;4.97;;;3.23;;
10295;SDS011;5193;51.032;6.356;2022-08-25T04:21:33;4.40;;;3.17;;
10295;SDS011;5193;51.032;6.356;2022-08-25T04:24:00;7.77;;;3.20;;
10295;SDS011;5193;51.032;6.356;2022-08-25T04:26:27;7.23;;;3.30;;
10295;SDS011;5193;51.032;6.356;2022-08-25T04:28:59;5.07;;;3.30;;
10295;SDS011;5193;51.032;6.356;2022-08-25T04:31:27;3.40;;;3.00;;
10295;SDS011;5193;51.032;6.356;2022-08-25T04:33:53;5.53;;;3.30;;
10295;SDS011;5193;51.032;6.356;2022-08-25T04:36:19;5.20;;;3.13;;
10295;SDS011;5193;51.032;6.356;2022-08-25T04:38:45;8.80;;;3.70;;
10295;SDS011;5193;51.032;6.356;2022-08-25T04:41:14;6.47;;;3.20;;
10295;SDS011;5193;51.032;6.356;2022-08-25T04:43:42;7.70;;;3.77;;
10295;SDS011;5193;51.032;6.356;2022-08-25T04:46:10;6.90;;;3.20;;
10295;SDS011;5193;51.032;6.356;2022-08-25T04:48:39;3.90;;;3.10;;
10295;SDS011;5193;51.032;6.356;2022-08-25T04:51:06;5.47;;;3.00;;
10295;SDS011;5193;51.032;6.356;2022-08-25T04:53:34;5.80;;;3.03;;
10295;SDS011;5193;51.032;6.356;2022-08-25T04:56:00;4.70;;;3.00;;
10295;SDS011;5193;51.032;6.356;2022-08-25T04:58:29;11.50;;;3.67;;
10295;SDS011;5193;51.032;6.356;2022-08-25T05:01:00;8.57;;;3.70;;
10295;SDS011;5193;51.032;6.356;2022-08-25T05:03:34;5.13;;;3.50;;
10295;SDS011;5193;51.032;6.356;2022-08-25T05:06:02;6.33;;;3.90;;
10295;SDS011;5193;51.032;6.356;2022-08-25T05:08:28;5.10;;;3.07;;
10295;SDS011;5193;51.032;6.356;2022-08-25T05:10:55;6.33;;;3.53;;
10295;SDS011;5193;51.032;6.356;2022-08-25T05:13:21;6.37;;;3.60;;
10295;SDS011;5193;51.032;6.356;2022-08-25T05:15:53;4.37;;;3.60;;
10295;SDS011;5193;51.032;6.356;2022-08-25T05:18:20;5.00;;;3.27;;
10295;SDS011;5193;51.032;6.356;2022-08-25T05:20:47;5.27;;;3.20;;
10295;SDS011;5193;51.032;6.356;2022-08-25T05:23:14;7.57;;;3.53;;
10295;SDS011;5193;51.032;6.356;2022-08-25T05:25:40;9.50;;;3.03;;
10295;SDS011;5193;51.032;6.356;2022-08-25T05:28:07;7.53;;;3.40;;
10295;SDS011;5193;51.032;6.356;2022-08-25T05:30:33;5.53;;;3.40;;
10295;SDS011;5193;51.032;6.356;2022-08-25T05:33:01;6.70;;;3.60;;
10295;SDS011;5193;51.032;6.356;2022-08-25T05:35:27;4.60;;;3.20;;
10295;SDS011;5193;51.032;6.356;2022-08-25T05:37:53;3.80;;;3.40;;
10295;SDS011;5193;51.032;6.356;2022-08-25T05:40:21;10.87;;;3.23;;
10295;SDS011;5193;51.032;6.356;2022-08-25T05:42:47;4.73;;;3.40;;
10295;SDS011;5193;51.032;6.356;2022-08-25T05:45:13;4.73;;;3.23;;
10295;SDS011;5193;51.032;6.356;2022-08-25T05:47:38;6.53;;;3.30;;
10295;SDS011;5193;51.032;6.356;2022-08-25T05:50:05;4.87;;;2.90;;
10295;SDS011;5193;51.032;6.356;2022-08-25T05:52:31;10.47;;;4.70;;
10295;SDS011;5193;51.032;6.356;2022-08-25T05:54:57;6.47;;;3.17;;
10295;SDS011;5193;51.032;6.356;2022-08-25T05:57:23;8.63;;;3.23;;
10295;SDS011;5193;51.032;6.356;2022-08-25T05:59:48;8.83;;;3.57;;
10295;SDS011;5193;51.032;6.356;2022-08-25T06:02:14;8.93;;;3.37;;
10295;SDS011;5193;51.032;6.356;2022-08-25T06:04:58;8.10;;;3.73;;
10295;SDS011;5193;51.032;6.356;2022-08-25T06:07:23;9.37;;;3.60;;
10295;SDS011;5193;51.032;6.356;2022-08-25T06:09:49;12.23;;;4.10;;
10295;SDS011;5193;51.032;6.356;2022-08-25T06:12:15;5.97;;;3.57;;
10295;SDS011;5193;51.032;6.356;2022-08-25T06:14:42;8.47;;;3.20;;
10295;SDS011;5193;51.032;6.356;2022-08-25T06:17:08;5.40;;;2.87;;
10295;SDS011;5193;51.032;6.356;2022-08-25T06:19:34;9.23;;;3.50;;
10295;SDS011;5193;51.032;6.356;2022-08-25T06:22:00;9.27;;;2.97;;
10295;SDS011;5193;51.032;6.356;2022-08-25T06:24:26;5.10;;;3.33;;
10295;SDS011;5193;51.032;6.356;2022-08-25T06:26:53;8.77;;;3.30;;
10295;SDS011;5193;51.032;6.356;2022-08-25T06:29:19;6.30;;;3.20;;
10295;SDS011;5193;51.032;6.356;2022-08-25T06:31:45;6.03;;;3.03;;
10295;SDS011;5193;51.032;6.356;2022-08-25T06:34:13;6.10;;;3.00;;
10295;SDS011;5193;51.032;6.356;2022-08-25T06:36:39;7.73;;;3.00;;
10295;SDS011;5193;51.032;6.356;2022-08-25T06:39:05;7.93;;;3.20;;
10295;SDS011;5193;51.032;6.356;2022-08-25T06:41:31;4.93;;;3.17;;
10295;SDS011;5193;51.032;6.356;2022-08-25T06:43:57;4.63;;;2.87;;
10295;SDS011;5193;51.032;6.356;2022-08-25T06:46:23;7.43;;;3.50;;
10295;SDS011;5193;51.032;6.356;2022-08-25T06:48:51;5.93;;;3.07;;
10295;SDS011;5193;51.032;6.356;2022-08-25T06:51:18;6.63;;;3.00;;
10295;SDS011;5193;51.032;6.356;2022-08-25T06:53:45;5.37;;;3.20;;
10295;SDS011;5193;51.032;6.356;2022-08-25T06:56:13;4.23;;;3.00;;
10295;SDS011;5193;51.032;6.356;2022-08-25T06:58:40;4.87;;;3.20;;
10295;SDS011;5193;51.032;6.356;2022-08-25T07:01:10;8.73;;;3.53;;
10295;SDS011;5193;51.032;6.356;2022-08-25T07:03:38;8.63;;;3.37;;
10295;SDS011;5193;51.032;6.356;2022-08-25T07:06:04;6.60;;;3.03;;
10295;SDS011;5193;51.032;6.356;2022-08-25T07:08:30;9.30;;;2.97;;
10295;SDS011;5193;51.032;6.356;2022-08-25T07:10:56;5.97;;;3.07;;
10295;SDS011;5193;51.032;6.356;2022-08-25T07:13:22;8.77;;;3.00;;
10295;SDS011;5193;51.032;6.356;2022-08-25T07:15:51;8.70;;;3.40;;
10295;SDS011;5193;51.032;6.356;2022-08-25T07:18:17;8.87;;;3.00;;
10295;SDS011;5193;51.032;6.356;2022-08-25T07:20:43;11.07;;;3.40;;
10295;SDS011;5193;51.032;6.356;2022-08-25T07:23:09;6.43;;;2.70;;
10295;SDS011;5193;51.032;6.356;2022-08-25T07:25:35;12.90;;;3.00;;
10295;SDS011;5193;51.032;6.356;2022-08-25T07:28:01;9.53;;;3.20;;
10295;SDS011;5193;51.032;6.356;2022-08-25T07:30:28;4.80;;;2.67;;
10295;SDS011;5193;51.032;6.356;2022-08-25T07:32:53;8.13;;;2.93;;
10295;SDS011;5193;51.032;6.356;2022-08-25T07:35:19;6.83;;;2.90;;
10295;SDS011;5193;51.032;6.356;2022-08-25T07:37:51;6.50;;;2.90;;
10295;SDS011;5193;51.032;6.356;2022-08-25T07:40:23;3.77;;;2.50;;
10295;SDS011;5193;51.032;6.356;2022-08-25T07:42:50;6.73;;;2.80;;
10295;SDS011;5193;51.032;6.356;2022-08-25T07:45:19;4.20;;;3.10;;
10295;SDS011;5193;51.032;6.356;2022-08-25T07:47:49;6.83;;;3.37;;
10295;SDS011;5193;51.032;6.356;2022-08-25T07:50:17;10.97;;;3.07;;
10295;SDS011;5193;51.032;6.356;2022-08-25T07:52:43;6.73;;;2.77;;
10295;SDS011;5193;51.032;6.356;2022-08-25T07:55:10;4.47;;;2.43;;
10295;SDS011;5193;51.032;6.356;2022-08-25T07:57:37;3.87;;;2.53;;
10295;SDS011;5193;51.032;6.356;2022-08-25T08:00:04;6.43;;;3.30;;
10295;SDS011;5193;51.032;6.356;2022-08-25T08:02:31;10.73;;;2.50;;
10295;SDS011;5193;51.032;6.356;2022-08-25T08:04:56;8.47;;;3.00;;
10295;SDS011;5193;51.032;6.356;2022-08-25T08:07:24;3.57;;;2.50;;
10295;SDS011;5193;51.032;6.356;2022-08-25T08:09:50;9.90;;;2.60;;
10295;SDS011;5193;51.032;6.356;2022-08-25T08:12:17;9.53;;;2.47;;
10295;SDS011;5193;51.032;6.356;2022-08-25T08:14:43;6.63;;;3.00;;
10295;SDS011;5193;51.032;6.356;2022-08-25T08:17:09;4.57;;;2.50;;
10295;SDS011;5193;51.032;6.356;2022-08-25T08:19:35;5.17;;;2.40;;
10295;SDS011;5193;51.032;6.356;2022-08-25T08:22:02;3.20;;;2.40;;
10295;SDS011;5193;51.032;6.356;2022-08-25T08:24:28;5.23;;;2.80;;
10295;SDS011;5193;51.032;6.356;2022-08-25T08:26:55;5.70;;;2.50;;
10295;SDS011;5193;51.032;6.356;2022-08-25T08:29:21;5.27;;;3.10;;
10295;SDS011;5193;51.032;6.356;2022-08-25T08:31:47;3.13;;;2.30;;
10295;SDS011;5193;51.032;6.356;2022-08-25T08:34:13;3.30;;;2.23;;
10295;SDS011;5193;51.032;6.356;2022-08-25T08:36:39;6.53;;;2.53;;
10295;SDS011;5193;51.032;6.356;2022-08-25T08:39:04;4.80;;;2.37;;
10295;SDS011;5193;51.032;6.356;2022-08-25T08:41:36;3.93;;;2.50;;
10295;SDS011;5193;51.032;6.356;2022-08-25T08:47:19;5.00;;;3.17;;
10295;SDS011;5193;51.032;6.356;2022-08-25T08:50:15;6.83;;;2.30;;
10295;SDS011;5193;51.032;6.356;2022-08-25T08:55:16;4.97;;;2.10;;
10295;SDS011;5193;51.032;6.356;2022-08-25T08:57:57;7.00;;;2.27;;
10295;SDS011;5193;51.032;6.356;2022-08-25T09:00:25;6.37;;;2.33;;
10295;SDS011;5193;51.032;6.356;2022-08-25T09:03:02;4.47;;;2.30;;
10295;SDS011;5193;51.032;6.356;2022-08-25T09:05:31;4.03;;;2.17;;
10295;SDS011;5193;51.032;6.356;2022-08-25T09:08:06;8.37;;;2.40;;
10295;SDS011;5193;51.032;6.356;2022-08-25T09:10:44;3.60;;;2.10;;
10295;SDS011;5193;51.032;6.356;2022-08-25T09:16:41;8.30;;;2.33;;
10295;SDS011;5193;51.032;6.356;2022-08-25T09:27:34;7.47;;;2.30;;
10295;SDS011;5193;51.032;6.356;2022-08-25T09:30:13;2.43;;;2.00;;
10295;SDS011;5193;51.032;6.356;2022-08-25T09:32:44;2.27;;;1.70;;
10295;SDS011;5193;51.032;6.356;2022-08-25T09:35:19;3.80;;;1.90;;
10295;SDS011;5193;51.032;6.356;2022-08-25T09:37:58;5.87;;;1.90;;
10295;SDS011;5193;51.032;6.356;2022-08-25T09:40:24;3.73;;;1.90;;
10295;SDS011;5193;51.032;6.356;2022-08-25T09:42:53;4.73;;;1.97;;
10295;SDS011;5193;51.032;6.356;2022-08-25T09:48:01;5.40;;;2.13;;
10295;SDS011;5193;51.032;6.356;2022-08-25T09:50:47;2.47;;;1.80;;
10295;SDS011;5193;51.032;6.356;2022-08-25T09:53:15;6.80;;;2.23;;
10295;SDS011;5193;51.032;6.356;2022-08-25T09:55:42;5.97;;;2.20;;
10295;SDS011;5193;51.032;6.356;2022-08-25T09:58:15;4.20;;;1.70;;
10295;SDS011;5193;51.032;6.356;2022-08-25T10:00:43;2.10;;;1.60;;
10295;SDS011;5193;51.032;6.356;2022-08-25T10:03:12;3.95;;;1.95;;
10295;SDS011;5193;51.032;6.356;2022-08-25T10:08:35;3.40;;;1.95;;
10295;SDS011;5193;51.032;6.356;2022-08-25T10:11:08;5.80;;;2.20;;
10295;SDS011;5193;51.032;6.356;2022-08-25T10:13:39;6.27;;;2.20;;
10295;SDS011;5193;51.032;6.356;2022-08-25T10:16:21;3.95;;;2.03;;
10295;SDS011;5193;51.032;6.356;2022-08-25T10:19:06;2.50;;;1.92;;
10295;SDS011;5193;51.032;6.356;2022-08-25T10:21:37;4.40;;;1.85;;
10295;SDS011;5193;51.032;6.356;2022-08-25T10:24:06;3.20;;;1.92;;
10295;SDS011;5193;51.032;6.356;2022-08-25T10:32:17;6.00;;;2.08;;
10295;SDS011;5193;51.032;6.356;2022-08-25T10:35:05;3.47;;;2.38;;
10295;SDS011;5193;51.032;6.356;2022-08-25T10:37:41;4.15;;;2.75;;
10295;SDS011;5193;51.032;6.356;2022-08-25T10:43:06;3.25;;;2.13;;
10295;SDS011;5193;51.032;6.356;2022-08-25T10:45:46;4.72;;;1.90;;
10295;SDS011;5193;51.032;6.356;2022-08-25T10:56:50;4.88;;;2.10;;
10295;SDS011;5193;51.032;6.356;2022-08-25T10:59:58;4.28;;;2.33;;
10295;SDS011;5193;51.032;6.356;2022-08-25T11:08:09;2.95;;;1.70;;
10295;SDS011;5193;51.032;6.356;2022-08-25T11:10:59;2.55;;;1.92;;
10295;SDS011;5193;51.032;6.356;2022-08-25T11:13:53;5.45;;;2.20;;
10295;SDS011;5193;51.032;6.356;2022-08-25T11:19:16;3.47;;;2.00;;
10295;SDS011;5193;51.032;6.356;2022-08-25T11:26:56;2.00;;;1.60;;
10295;SDS011;5193;51.032;6.356;2022-08-25T11:29:24;8.27;;;2.05;;
10295;SDS011;5193;51.032;6.356;2022-08-25T11:31:55;2.35;;;1.88;;
10295;SDS011;5193;51.032;6.356;2022-08-25T11:34:25;1.80;;;1.60;;
10295;SDS011;5193;51.032;6.356;2022-08-25T11:37:00;14.07;;;2.47;;
10295;SDS011;5193;51.032;6.356;2022-08-25T11:39:41;2.58;;;1.70;;
10295;SDS011;5193;51.032;6.356;2022-08-25T11:50:54;2.78;;;1.50;;
10295;SDS011;5193;51.032;6.356;2022-08-25T11:55:53;1.88;;;1.38;;
10295;SDS011;5193;51.032;6.356;2022-08-25T12:01:59;5.15;;;2.25;;
10295;SDS011;5193;51.032;6.356;2022-08-25T12:12:59;4.47;;;1.88;;
10295;SDS011;5193;51.032;6.356;2022-08-25T12:31:09;1.58;;;1.33;;
10295;SDS011;5193;51.032;6.356;2022-08-25T12:33:57;4.85;;;1.67;;
10295;SDS011;5193;51.032;6.356;2022-08-25T12:36:54;1.85;;;1.70;;
10295;SDS011;5193;51.032;6.356;2022-08-25T12:39:22;3.03;;;1.90;;
10295;SDS011;5193;51.032;6.356;2022-08-25T12:41:56;3.88;;;1.73;;
10295;SDS011;5193;51.032;6.356;2022-08-25T12:44:39;5.10;;;1.95;;
10295;SDS011;5193;51.032;6.356;2022-08-25T12:47:12;2.58;;;1.95;;
10295;SDS011;5193;51.032;6.356;2022-08-25T12:49:38;6.47;;;1.70;;
10295;SDS011;5193;51.032;6.356;2022-08-25T12:52:17;3.55;;;1.75;;
10295;SDS011;5193;51.032;6.356;2022-08-25T12:57:38;3.20;;;1.60;;
10295;SDS011;5193;51.032;6.356;2022-08-25T13:05:27;2.33;;;1.63;;
10295;SDS011;5193;51.032;6.356;2022-08-25T13:13:59;2.08;;;1.50;;
10295;SDS011;5193;51.032;6.356;2022-08-25T13:16:31;2.00;;;1.65;;
10295;SDS011;5193;51.032;6.356;2022-08-25T13:18:57;1.90;;;1.75;;
10295;SDS011;5193;51.032;6.356;2022-08-25T13:21:40;3.00;;;1.52;;
10295;SDS011;5193;51.032;6.356;2022-08-25T13:26:49;8.65;;;1.85;;
10295;SDS011;5193;51.032;6.356;2022-08-25T13:29:19;1.92;;;1.60;;
10295;SDS011;5193;51.032;6.356;2022-08-25T13:31:59;4.10;;;1.63;;
10295;SDS011;5193;51.032;6.356;2022-08-25T13:34:30;3.28;;;1.42;;
10295;SDS011;5193;51.032;6.356;2022-08-25T13:37:03;2.33;;;1.48;;
10295;SDS011;5193;51.032;6.356;2022-08-25T13:40:07;3.30;;;1.67;;
10295;SDS011;5193;51.032;6.356;2022-08-25T13:42:47;3.10;;;1.30;;
10295;SDS011;5193;51.032;6.356;2022-08-25T13:45:18;3.72;;;1.80;;
10295;SDS011;5193;51.032;6.356;2022-08-25T13:47:49;4.25;;;1.58;;
10295;SDS011;5193;51.032;6.356;2022-08-25T13:50:18;1.77;;;1.58;;
10295;SDS011;5193;51.032;6.356;2022-08-25T13:52:46;3.53;;;1.40;;
10295;SDS011;5193;51.032;6.356;2022-08-25T13:55:32;4.82;;;1.70;;
10295;SDS011;5193;51.032;6.356;2022-08-25T13:58:01;3.83;;;1.60;;
10295;SDS011;5193;51.032;6.356;2022-08-25T14:00:32;2.92;;;1.50;;
10295;SDS011;5193;51.032;6.356;2022-08-25T14:03:04;2.75;;;1.50;;
10295;SDS011;5193;51.032;6.356;2022-08-25T14:05:38;2.63;;;2.10;;
10295;SDS011;5193;51.032;6.356;2022-08-25T14:08:07;3.25;;;1.73;;
10295;SDS011;5193;51.032;6.356;2022-08-25T14:11:01;6.35;;;1.90;;
10295;SDS011;5193;51.032;6.356;2022-08-25T14:13:33;3.88;;;1.73;;
10295;SDS011;5193;51.032;6.356;2022-08-25T14:16:06;6.72;;;1.90;;
10295;SDS011;5193;51.032;6.356;2022-08-25T14:18:50;5.85;;;1.80;;
10295;SDS011;5193;51.032;6.356;2022-08-25T14:21:24;3.70;;;2.08;;
10295;SDS011;5193;51.032;6.356;2022-08-25T14:23:52;2.22;;;1.85;;
10295;SDS011;5193;51.032;6.356;2022-08-25T14:26:20;4.15;;;1.83;;
10295;SDS011;5193;51.032;6.356;2022-08-25T14:28:46;3.05;;;1.73;;
10295;SDS011;5193;51.032;6.356;2022-08-25T14:31:13;3.13;;;1.85;;
10295;SDS011;5193;51.032;6.356;2022-08-25T14:33:53;1.80;;;1.65;;
10295;SDS011;5193;51.032;6.356;2022-08-25T14:36:22;12.07;;;2.08;;
10295;SDS011;5193;51.032;6.356;2022-08-25T14:38:48;1.45;;;1.35;;
10295;SDS011;5193;51.032;6.356;2022-08-25T14:41:14;4.53;;;1.77;;
10295;SDS011;5193;51.032;6.356;2022-08-25T14:43:39;3.85;;;1.70;;
10295;SDS011;5193;51.032;6.356;2022-08-25T14:46:11;3.58;;;1.63;;
10295;SDS011;5193;51.032;6.356;2022-08-25T14:48:46;2.03;;;1.50;;
10295;SDS011;5193;51.032;6.356;2022-08-25T14:51:16;2.42;;;1.70;;
10295;SDS011;5193;51.032;6.356;2022-08-25T14:53:42;5.78;;;2.00;;
10295;SDS011;5193;51.032;6.356;2022-08-25T14:56:08;6.45;;;1.98;;
10295;SDS011;5193;51.032;6.356;2022-08-25T14:58:33;5.07;;;2.00;;
10295;SDS011;5193;51.032;6.356;2022-08-25T15:00:59;4.03;;;1.75;;
10295;SDS011;5193;51.032;6.356;2022-08-25T15:03:38;5.28;;;2.10;;
10295;SDS011;5193;51.032;6.356;2022-08-25T15:06:07;9.02;;;1.92;;
10295;SDS011;5193;51.032;6.356;2022-08-25T15:08:35;3.65;;;1.90;;
10295;SDS011;5193;51.032;6.356;2022-08-25T15:11:19;3.47;;;1.80;;
10295;SDS011;5193;51.032;6.356;2022-08-25T15:13:45;3.33;;;2.00;;
10295;SDS011;5193;51.032;6.356;2022-08-25T15:16:12;4.70;;;2.22;;
10295;SDS011;5193;51.032;6.356;2022-08-25T15:18:44;7.38;;;1.77;;
10295;SDS011;5193;51.032;6.356;2022-08-25T15:21:09;4.15;;;1.90;;
10295;SDS011;5193;51.032;6.356;2022-08-25T15:23:35;4.75;;;1.90;;
10295;SDS011;5193;51.032;6.356;2022-08-25T15:26:00;7.00;;;1.88;;
10295;SDS011;5193;51.032;6.356;2022-08-25T15:28:26;4.13;;;1.80;;
10295;SDS011;5193;51.032;6.356;2022-08-25T15:30:51;3.80;;;1.80;;
10295;SDS011;5193;51.032;6.356;2022-08-25T15:33:17;7.13;;;2.00;;
10295;SDS011;5193;51.032;6.356;2022-08-25T15:35:43;7.82;;;1.80;;
10295;SDS011;5193;51.032;6.356;2022-08-25T15:38:09;2.33;;;1.90;;
10295;SDS011;5193;51.032;6.356;2022-08-25T15:40:34;3.00;;;1.83;;
10295;SDS011;5193;51.032;6.356;2022-08-25T15:43:02;4.28;;;2.00;;
10295;SDS011;5193;51.032;6.356;2022-08-25T15:45:28;4.35;;;2.00;;
10295;SDS011;5193;51.032;6.356;2022-08-25T15:47:54;3.20;;;1.77;;
10295;SDS011;5193;51.032;6.356;2022-08-25T15:50:20;6.10;;;1.80;;
10295;SDS011;5193;51.032;6.356;2022-08-25T15:52:47;3.00;;;1.80;;
10295;SDS011;5193;51.032;6.356;2022-08-25T15:55:14;6.05;;;1.83;;
10295;SDS011;5193;51.032;6.356;2022-08-25T15:57:41;4.25;;;1.65;;
10295;SDS011;5193;51.032;6.356;2022-08-25T16:00:08;4.43;;;1.70;;
10295;SDS011;5193;51.032;6.356;2022-08-25T16:02:36;2.08;;;1.67;;
10295;SDS011;5193;51.032;6.356;2022-08-25T16:05:03;3.85;;;1.90;;
10295;SDS011;5193;51.032;6.356;2022-08-25T16:07:30;6.03;;;2.00;;
10295;SDS011;5193;51.032;6.356;2022-08-25T16:09:56;6.40;;;1.85;;
10295;SDS011;5193;51.032;6.356;2022-08-25T16:12:22;5.10;;;2.15;;
10295;SDS011;5193;51.032;6.356;2022-08-25T16:14:49;5.35;;;2.05;;
10295;SDS011;5193;51.032;6.356;2022-08-25T16:17:16;3.83;;;1.63;;
10295;SDS011;5193;51.032;6.356;2022-08-25T16:19:43;5.30;;;1.92;;
10295;SDS011;5193;51.032;6.356;2022-08-25T16:22:09;6.22;;;1.92;;
10295;SDS011;5193;51.032;6.356;2022-08-25T16:24:37;2.30;;;2.10;;
10295;SDS011;5193;51.032;6.356;2022-08-25T16:27:04;3.33;;;1.70;;
10295;SDS011;5193;51.032;6.356;2022-08-25T16:29:33;5.80;;;2.00;;
10295;SDS011;5193;51.032;6.356;2022-08-25T16:32:00;2.95;;;1.80;;
10295;SDS011;5193;51.032;6.356;2022-08-25T16:34:28;3.03;;;1.70;;
10295;SDS011;5193;51.032;6.356;2022-08-25T16:36:54;1.85;;;1.67;;
10295;SDS011;5193;51.032;6.356;2022-08-25T16:39:20;3.63;;;2.00;;
10295;SDS011;5193;51.032;6.356;2022-08-25T16:41:46;4.28;;;1.95;;
10295;SDS011;5193;51.032;6.356;2022-08-25T16:44:12;2.70;;;1.92;;
10295;SDS011;5193;51.032;6.356;2022-08-25T16:46:38;3.50;;;2.30;;
10295;SDS011;5193;51.032;6.356;2022-08-25T16:49:04;3.95;;;1.95;;
10295;SDS011;5193;51.032;6.356;2022-08-25T16:51:30;4.18;;;2.00;;
10295;SDS011;5193;51.032;6.356;2022-08-25T16:53:56;4.93;;;1.95;;
10295;SDS011;5193;51.032;6.356;2022-08-25T16:56:41;2.25;;;2.03;;
10295;SDS011;5193;51.032;6.356;2022-08-25T16:59:08;3.30;;;2.20;;
10295;SDS011;5193;51.032;6.356;2022-08-25T17:01:36;6.78;;;2.38;;
10295;SDS011;5193;51.032;6.356;2022-08-25T17:04:02;4.55;;;2.20;;
10295;SDS011;5193;51.032;6.356;2022-08-25T17:06:29;6.30;;;2.35;;